Huntsville, TX (77320)

2:44 PM CDT on September 17, 2014 (GMT -0500)
Huntsville Municipal | Change Station
CLOSE
Current Station
Airport
Location: Huntsville,
Elevation: 364 ft
Nearby Weather Stations
Active Advisory: Areal Flood Watch

Elev 364 ft 30.74 °N, 95.59 °W | Updated 51 minutes ago

Mostly Cloudy
Mostly Cloudy
85 °F
Feels Like 91 °F
N
0
Wind Variable Wind from North

Today
High -- | Low -- °F
--% Chance of Precip.
Yesterday
High -- | Low -- °F
Precip. -- in
7:07 AM 7:25 PM
Waning Crescent, 33% visible
Pressure 29.92 in
Visibility 10.0 miles
Clouds Mostly Cloudy 3000 ft
Heat Index 91 °F
Dew Point 73 °F
Humidity 67%
Rainfall 0.00 in
Snow Depth Not available.
UV 5 out of 12
Pollen 7.30 out of 12
Air Quality Not available.
Flu Activity Not available.
METAR KUTS 171853Z AUTO 00000KT 10SM BKN030 29/23 A2993 RMK AO2 SLP130 T02940228

More Conditions Fewer Conditions

Pressure 29.92 in
Visibility 10.0 miles
Clouds Mostly Cloudy 3000 ft
Heat Index 91 °F
Dew Point 73 °F
Humidity 67%
Rainfall 0.00 in
Snow Depth Not available.
UV 5 out of 12
Pollen 7.30 out of 12
Air Quality Not available.
Flu Activity Not available.
METAR KUTS 171853Z AUTO 00000KT 10SM BKN030 29/23 A2993 RMK AO2 SLP130 T02940228

More Conditions Fewer Conditions

10-Day Weather Forecast

Almanac

Astronomy

Sep. 17, 2014 Rise Set
Actual Time 7:07 AM CDT 7:25 PM CDT
Civil Twilight 6:43 AM CDT 7:49 PM CDT
Nautical Twilight 6:15 AM CDT 8:17 PM CDT
Astronomical Twilight 5:46 AM CDT 8:46 PM CDT
Moon 1:25 AM CDT 3:19 PM CDT
Length of Visible Light 13h 05m
Length of Day
12h 17m
Tomorrow will be 1m 52s shorter.
Waning Crescent, 33% of the Moon is Illuminated
Today
Waning Crescent
Sep 24
New
Oct 1
First Quarter
Oct 8
Full
Oct 15
Last Quarter

Today's Extremes

State Highs State Lows

Community

WunderPhotos

Upload Photos

1,754,149 photos uploaded!

Nearby

Snow Depth

Station Depth Elevation
No new snow has been reported.

Earthquake Activity

City Distance Mag. Time & Date
No recent earthquake activity has been reported nearby.
Minimum magnitude displayed is 2.5.

Coastal Water Temperatures

Place Temperature
No Stations Reporting

Nearby Weather Stations